sensor_id;sensor_type;location;lat;lon;timestamp;P1;durP1;ratioP1;P2;durP2;ratioP2
66741;SDS011;53654;54.152;19.432;2023-09-07T00:01:05;14.70;;;13.50;;
66741;SDS011;53654;54.152;19.432;2023-09-07T00:03:38;14.90;;;13.70;;
66741;SDS011;53654;54.152;19.432;2023-09-07T00:06:09;14.90;;;13.70;;
66741;SDS011;53654;54.152;19.432;2023-09-07T00:08:38;15.00;;;13.80;;
66741;SDS011;53654;54.152;19.432;2023-09-07T00:11:06;15.50;;;14.20;;
66741;SDS011;53654;54.152;19.432;2023-09-07T00:13:35;17.50;;;15.90;;
66741;SDS011;53654;54.152;19.432;2023-09-07T00:16:04;20.70;;;18.70;;
66741;SDS011;53654;54.152;19.432;2023-09-07T00:18:33;27.00;;;21.70;;
66741;SDS011;53654;54.152;19.432;2023-09-07T00:21:01;22.90;;;20.80;;
66741;SDS011;53654;54.152;19.432;2023-09-07T00:23:29;20.70;;;18.80;;
66741;SDS011;53654;54.152;19.432;2023-09-07T00:25:58;14.90;;;13.60;;
66741;SDS011;53654;54.152;19.432;2023-09-07T00:28:26;15.40;;;14.20;;
66741;SDS011;53654;54.152;19.432;2023-09-07T00:30:54;12.70;;;11.70;;
66741;SDS011;53654;54.152;19.432;2023-09-07T00:33:22;12.30;;;11.40;;
66741;SDS011;53654;54.152;19.432;2023-09-07T00:35:50;13.80;;;12.60;;
66741;SDS011;53654;54.152;19.432;2023-09-07T00:38:19;14.70;;;13.30;;
66741;SDS011;53654;54.152;19.432;2023-09-07T00:40:47;12.40;;;11.30;;
66741;SDS011;53654;54.152;19.432;2023-09-07T00:43:15;10.40;;;9.60;;
66741;SDS011;53654;54.152;19.432;2023-09-07T00:45:43;9.00;;;8.30;;
66741;SDS011;53654;54.152;19.432;2023-09-07T00:48:13;9.50;;;8.70;;
66741;SDS011;53654;54.152;19.432;2023-09-07T00:50:43;8.90;;;8.30;;
66741;SDS011;53654;54.152;19.432;2023-09-07T00:53:12;10.00;;;9.30;;
66741;SDS011;53654;54.152;19.432;2023-09-07T00:55:42;10.10;;;9.40;;
66741;SDS011;53654;54.152;19.432;2023-09-07T00:58:11;11.30;;;10.50;;
66741;SDS011;53654;54.152;19.432;2023-09-07T01:00:40;11.50;;;10.50;;
66741;SDS011;53654;54.152;19.432;2023-09-07T01:03:08;11.40;;;10.40;;
66741;SDS011;53654;54.152;19.432;2023-09-07T01:05:47;11.20;;;10.40;;
66741;SDS011;53654;54.152;19.432;2023-09-07T01:08:27;11.60;;;10.70;;
66741;SDS011;53654;54.152;19.432;2023-09-07T01:11:00;12.40;;;11.50;;
66741;SDS011;53654;54.152;19.432;2023-09-07T01:13:28;12.90;;;12.00;;
66741;SDS011;53654;54.152;19.432;2023-09-07T01:15:56;13.60;;;12.60;;
66741;SDS011;53654;54.152;19.432;2023-09-07T01:18:25;14.60;;;13.60;;
66741;SDS011;53654;54.152;19.432;2023-09-07T01:20:53;15.20;;;14.10;;
66741;SDS011;53654;54.152;19.432;2023-09-07T01:23:23;15.00;;;13.90;;
66741;SDS011;53654;54.152;19.432;2023-09-07T01:25:52;15.60;;;14.40;;
66741;SDS011;53654;54.152;19.432;2023-09-07T01:28:21;16.40;;;15.10;;
66741;SDS011;53654;54.152;19.432;2023-09-07T01:30:50;15.90;;;14.60;;
66741;SDS011;53654;54.152;19.432;2023-09-07T01:33:20;16.00;;;14.60;;
66741;SDS011;53654;54.152;19.432;2023-09-07T01:35:48;15.80;;;14.50;;
66741;SDS011;53654;54.152;19.432;2023-09-07T01:38:17;15.20;;;13.90;;
66741;SDS011;53654;54.152;19.432;2023-09-07T01:40:45;16.00;;;14.60;;
66741;SDS011;53654;54.152;19.432;2023-09-07T01:43:14;15.40;;;14.00;;
66741;SDS011;53654;54.152;19.432;2023-09-07T01:45:42;15.20;;;13.90;;
66741;SDS011;53654;54.152;19.432;2023-09-07T01:48:10;16.90;;;15.40;;
66741;SDS011;53654;54.152;19.432;2023-09-07T01:50:40;16.50;;;15.00;;
66741;SDS011;53654;54.152;19.432;2023-09-07T01:53:08;17.20;;;15.60;;
66741;SDS011;53654;54.152;19.432;2023-09-07T01:55:36;18.10;;;16.40;;
66741;SDS011;53654;54.152;19.432;2023-09-07T01:58:04;17.40;;;15.80;;
66741;SDS011;53654;54.152;19.432;2023-09-07T02:00:35;15.90;;;14.60;;
66741;SDS011;53654;54.152;19.432;2023-09-07T02:03:06;15.40;;;14.30;;
66741;SDS011;53654;54.152;19.432;2023-09-07T02:05:34;14.30;;;13.30;;
66741;SDS011;53654;54.152;19.432;2023-09-07T02:08:03;13.80;;;12.80;;
66741;SDS011;53654;54.152;19.432;2023-09-07T02:10:33;14.00;;;12.90;;
66741;SDS011;53654;54.152;19.432;2023-09-07T02:13:01;14.10;;;13.10;;
66741;SDS011;53654;54.152;19.432;2023-09-07T02:15:31;13.80;;;12.80;;
66741;SDS011;53654;54.152;19.432;2023-09-07T02:17:59;14.60;;;13.60;;
66741;SDS011;53654;54.152;19.432;2023-09-07T02:20:27;14.10;;;13.10;;
66741;SDS011;53654;54.152;19.432;2023-09-07T02:22:56;13.80;;;12.80;;
66741;SDS011;53654;54.152;19.432;2023-09-07T02:25:24;13.80;;;12.80;;
66741;SDS011;53654;54.152;19.432;2023-09-07T02:27:53;14.10;;;13.10;;
66741;SDS011;53654;54.152;19.432;2023-09-07T02:30:22;14.20;;;13.10;;
66741;SDS011;53654;54.152;19.432;2023-09-07T02:32:50;13.60;;;12.70;;
66741;SDS011;53654;54.152;19.432;2023-09-07T02:35:18;14.10;;;13.10;;
66741;SDS011;53654;54.152;19.432;2023-09-07T02:37:46;13.70;;;12.80;;
66741;SDS011;53654;54.152;19.432;2023-09-07T02:40:15;13.90;;;13.00;;
66741;SDS011;53654;54.152;19.432;2023-09-07T02:42:43;13.80;;;12.80;;
66741;SDS011;53654;54.152;19.432;2023-09-07T02:45:11;12.70;;;11.80;;
66741;SDS011;53654;54.152;19.432;2023-09-07T02:47:40;13.00;;;12.20;;
66741;SDS011;53654;54.152;19.432;2023-09-07T02:50:08;12.60;;;11.80;;
66741;SDS011;53654;54.152;19.432;2023-09-07T02:52:37;12.00;;;11.20;;
66741;SDS011;53654;54.152;19.432;2023-09-07T02:55:05;13.10;;;12.10;;
66741;SDS011;53654;54.152;19.432;2023-09-07T02:57:35;13.40;;;12.50;;
66741;SDS011;53654;54.152;19.432;2023-09-07T03:00:04;13.10;;;12.20;;
66741;SDS011;53654;54.152;19.432;2023-09-07T03:02:37;13.90;;;12.90;;
66741;SDS011;53654;54.152;19.432;2023-09-07T03:05:05;13.70;;;12.80;;
66741;SDS011;53654;54.152;19.432;2023-09-07T03:07:34;14.10;;;13.20;;
66741;SDS011;53654;54.152;19.432;2023-09-07T03:10:02;13.50;;;12.60;;
66741;SDS011;53654;54.152;19.432;2023-09-07T03:12:30;13.70;;;12.70;;
66741;SDS011;53654;54.152;19.432;2023-09-07T03:14:58;13.10;;;12.20;;
66741;SDS011;53654;54.152;19.432;2023-09-07T03:17:31;13.20;;;12.30;;
66741;SDS011;53654;54.152;19.432;2023-09-07T03:19:59;13.50;;;12.60;;
66741;SDS011;53654;54.152;19.432;2023-09-07T03:22:27;13.10;;;12.30;;
66741;SDS011;53654;54.152;19.432;2023-09-07T03:24:57;12.50;;;11.60;;
66741;SDS011;53654;54.152;19.432;2023-09-07T03:27:25;12.30;;;11.40;;
66741;SDS011;53654;54.152;19.432;2023-09-07T03:29:53;11.70;;;10.80;;
66741;SDS011;53654;54.152;19.432;2023-09-07T03:32:22;12.40;;;11.60;;
66741;SDS011;53654;54.152;19.432;2023-09-07T03:34:50;12.90;;;12.10;;
66741;SDS011;53654;54.152;19.432;2023-09-07T03:37:18;12.60;;;11.70;;
66741;SDS011;53654;54.152;19.432;2023-09-07T03:39:47;13.00;;;12.00;;
66741;SDS011;53654;54.152;19.432;2023-09-07T03:42:16;12.90;;;11.80;;
66741;SDS011;53654;54.152;19.432;2023-09-07T03:44:44;12.90;;;11.90;;
66741;SDS011;53654;54.152;19.432;2023-09-07T03:47:13;12.20;;;11.30;;
66741;SDS011;53654;54.152;19.432;2023-09-07T03:49:43;15.20;;;13.60;;
66741;SDS011;53654;54.152;19.432;2023-09-07T03:52:12;12.50;;;11.60;;
66741;SDS011;53654;54.152;19.432;2023-09-07T03:54:40;12.20;;;11.20;;
66741;SDS011;53654;54.152;19.432;2023-09-07T03:57:08;12.80;;;11.70;;
66741;SDS011;53654;54.152;19.432;2023-09-07T03:59:36;13.10;;;12.10;;
66741;SDS011;53654;54.152;19.432;2023-09-07T04:02:04;12.70;;;11.70;;
66741;SDS011;53654;54.152;19.432;2023-09-07T04:04:33;16.80;;;15.30;;
66741;SDS011;53654;54.152;19.432;2023-09-07T04:07:01;13.00;;;12.00;;
66741;SDS011;53654;54.152;19.432;2023-09-07T04:09:30;12.90;;;11.60;;
66741;SDS011;53654;54.152;19.432;2023-09-07T04:11:59;12.20;;;11.00;;
66741;SDS011;53654;54.152;19.432;2023-09-07T04:14:27;11.70;;;10.60;;
66741;SDS011;53654;54.152;19.432;2023-09-07T04:16:57;11.50;;;10.30;;
66741;SDS011;53654;54.152;19.432;2023-09-07T04:19:25;11.50;;;10.30;;
66741;SDS011;53654;54.152;19.432;2023-09-07T04:21:54;14.80;;;13.30;;
66741;SDS011;53654;54.152;19.432;2023-09-07T04:24:22;15.70;;;14.10;;
66741;SDS011;53654;54.152;19.432;2023-09-07T04:26:50;15.80;;;14.20;;
66741;SDS011;53654;54.152;19.432;2023-09-07T04:29:18;14.60;;;13.10;;
66741;SDS011;53654;54.152;19.432;2023-09-07T04:31:46;14.60;;;13.30;;
66741;SDS011;53654;54.152;19.432;2023-09-07T04:34:15;13.90;;;12.60;;
66741;SDS011;53654;54.152;19.432;2023-09-07T04:36:43;13.70;;;12.30;;
66741;SDS011;53654;54.152;19.432;2023-09-07T04:39:11;12.80;;;11.50;;
66741;SDS011;53654;54.152;19.432;2023-09-07T04:41:42;12.10;;;10.90;;
66741;SDS011;53654;54.152;19.432;2023-09-07T04:44:10;11.50;;;10.30;;
66741;SDS011;53654;54.152;19.432;2023-09-07T04:46:38;10.60;;;9.50;;
66741;SDS011;53654;54.152;19.432;2023-09-07T04:49:07;10.30;;;9.30;;
66741;SDS011;53654;54.152;19.432;2023-09-07T04:51:35;10.20;;;9.30;;
66741;SDS011;53654;54.152;19.432;2023-09-07T04:54:04;9.90;;;8.80;;
66741;SDS011;53654;54.152;19.432;2023-09-07T04:56:32;9.30;;;8.40;;
66741;SDS011;53654;54.152;19.432;2023-09-07T04:59:00;9.00;;;8.20;;
66741;SDS011;53654;54.152;19.432;2023-09-07T05:01:28;9.00;;;8.20;;
66741;SDS011;53654;54.152;19.432;2023-09-07T05:03:57;8.50;;;7.80;;
66741;SDS011;53654;54.152;19.432;2023-09-07T05:06:25;8.30;;;7.50;;
66741;SDS011;53654;54.152;19.432;2023-09-07T05:08:54;7.90;;;7.20;;
66741;SDS011;53654;54.152;19.432;2023-09-07T05:11:22;7.80;;;6.80;;
66741;SDS011;53654;54.152;19.432;2023-09-07T05:13:50;6.90;;;6.20;;
66741;SDS011;53654;54.152;19.432;2023-09-07T05:16:18;7.30;;;6.60;;
66741;SDS011;53654;54.152;19.432;2023-09-07T05:18:47;6.90;;;6.20;;
66741;SDS011;53654;54.152;19.432;2023-09-07T05:21:15;7.30;;;6.40;;
66741;SDS011;53654;54.152;19.432;2023-09-07T05:23:44;6.70;;;6.10;;
66741;SDS011;53654;54.152;19.432;2023-09-07T05:26:12;6.80;;;6.00;;
66741;SDS011;53654;54.152;19.432;2023-09-07T05:28:41;6.30;;;5.80;;
66741;SDS011;53654;54.152;19.432;2023-09-07T05:31:10;6.20;;;5.50;;
66741;SDS011;53654;54.152;19.432;2023-09-07T05:33:38;7.40;;;5.60;;
66741;SDS011;53654;54.152;19.432;2023-09-07T05:36:06;6.30;;;5.70;;
66741;SDS011;53654;54.152;19.432;2023-09-07T05:38:35;5.60;;;5.10;;
66741;SDS011;53654;54.152;19.432;2023-09-07T05:41:05;4.90;;;4.50;;
66741;SDS011;53654;54.152;19.432;2023-09-07T05:43:33;5.50;;;4.90;;
66741;SDS011;53654;54.152;19.432;2023-09-07T05:46:01;5.10;;;4.70;;
66741;SDS011;53654;54.152;19.432;2023-09-07T05:48:30;5.30;;;4.80;;
66741;SDS011;53654;54.152;19.432;2023-09-07T05:50:59;5.70;;;5.10;;
66741;SDS011;53654;54.152;19.432;2023-09-07T05:53:27;5.50;;;5.00;;
66741;SDS011;53654;54.152;19.432;2023-09-07T05:55:55;6.30;;;5.40;;
66741;SDS011;53654;54.152;19.432;2023-09-07T05:58:23;5.50;;;4.90;;
66741;SDS011;53654;54.152;19.432;2023-09-07T06:00:52;5.50;;;4.90;;
66741;SDS011;53654;54.152;19.432;2023-09-07T06:03:21;5.40;;;4.90;;
66741;SDS011;53654;54.152;19.432;2023-09-07T06:05:49;5.40;;;4.90;;
66741;SDS011;53654;54.152;19.432;2023-09-07T06:08:18;5.00;;;4.50;;
66741;SDS011;53654;54.152;19.432;2023-09-07T06:10:46;6.10;;;5.00;;
66741;SDS011;53654;54.152;19.432;2023-09-07T06:13:14;5.50;;;4.60;;
66741;SDS011;53654;54.152;19.432;2023-09-07T06:15:43;5.40;;;4.80;;
66741;SDS011;53654;54.152;19.432;2023-09-07T06:18:11;5.50;;;5.00;;
66741;SDS011;53654;54.152;19.432;2023-09-07T06:20:39;5.70;;;5.10;;
66741;SDS011;53654;54.152;19.432;2023-09-07T06:23:08;5.70;;;4.90;;
66741;SDS011;53654;54.152;19.432;2023-09-07T06:25:37;5.30;;;4.80;;
66741;SDS011;53654;54.152;19.432;2023-09-07T06:28:06;5.50;;;4.80;;
66741;SDS011;53654;54.152;19.432;2023-09-07T06:30:34;5.20;;;4.80;;
66741;SDS011;53654;54.152;19.432;2023-09-07T06:33:03;5.50;;;5.00;;
66741;SDS011;53654;54.152;19.432;2023-09-07T06:35:31;8.10;;;4.80;;
66741;SDS011;53654;54.152;19.432;2023-09-07T06:37:59;6.00;;;5.10;;
66741;SDS011;53654;54.152;19.432;2023-09-07T06:40:28;5.20;;;4.70;;
66741;SDS011;53654;54.152;19.432;2023-09-07T06:42:57;6.30;;;4.90;;
66741;SDS011;53654;54.152;19.432;2023-09-07T06:45:26;6.20;;;5.00;;
66741;SDS011;53654;54.152;19.432;2023-09-07T06:47:55;5.50;;;5.00;;
66741;SDS011;53654;54.152;19.432;2023-09-07T06:50:25;6.20;;;5.50;;
66741;SDS011;53654;54.152;19.432;2023-09-07T06:52:53;5.80;;;5.30;;
66741;SDS011;53654;54.152;19.432;2023-09-07T06:55:21;6.00;;;5.30;;
66741;SDS011;53654;54.152;19.432;2023-09-07T06:57:49;5.30;;;4.70;;
66741;SDS011;53654;54.152;19.432;2023-09-07T07:00:17;5.50;;;4.90;;
66741;SDS011;53654;54.152;19.432;2023-09-07T07:02:46;7.20;;;5.10;;
66741;SDS011;53654;54.152;19.432;2023-09-07T07:05:14;6.90;;;5.00;;
66741;SDS011;53654;54.152;19.432;2023-09-07T07:07:43;5.60;;;5.10;;
66741;SDS011;53654;54.152;19.432;2023-09-07T07:10:11;6.10;;;4.70;;
66741;SDS011;53654;54.152;19.432;2023-09-07T07:12:40;6.50;;;5.20;;
66741;SDS011;53654;54.152;19.432;2023-09-07T07:15:08;5.50;;;4.90;;
66741;SDS011;53654;54.152;19.432;2023-09-07T07:17:37;5.30;;;4.80;;
66741;SDS011;53654;54.152;19.432;2023-09-07T07:20:06;5.80;;;5.00;;
66741;SDS011;53654;54.152;19.432;2023-09-07T07:22:35;5.70;;;5.00;;
66741;SDS011;53654;54.152;19.432;2023-09-07T07:25:05;5.40;;;4.90;;
66741;SDS011;53654;54.152;19.432;2023-09-07T07:27:33;5.60;;;4.90;;
66741;SDS011;53654;54.152;19.432;2023-09-07T07:30:02;5.00;;;4.60;;
66741;SDS011;53654;54.152;19.432;2023-09-07T07:32:31;5.70;;;5.10;;
66741;SDS011;53654;54.152;19.432;2023-09-07T07:34:59;6.30;;;5.10;;
66741;SDS011;53654;54.152;19.432;2023-09-07T07:37:28;6.30;;;5.00;;
66741;SDS011;53654;54.152;19.432;2023-09-07T07:39:57;5.70;;;5.00;;
66741;SDS011;53654;54.152;19.432;2023-09-07T07:42:25;5.40;;;4.60;;
66741;SDS011;53654;54.152;19.432;2023-09-07T07:44:53;5.60;;;4.60;;
66741;SDS011;53654;54.152;19.432;2023-09-07T07:47:22;5.60;;;5.00;;
66741;SDS011;53654;54.152;19.432;2023-09-07T07:49:50;7.20;;;4.80;;
66741;SDS011;53654;54.152;19.432;2023-09-07T07:52:18;6.30;;;4.90;;
66741;SDS011;53654;54.152;19.432;2023-09-07T07:54:46;5.00;;;4.60;;
66741;SDS011;53654;54.152;19.432;2023-09-07T07:57:15;5.30;;;4.60;;
66741;SDS011;53654;54.152;19.432;2023-09-07T07:59:43;5.70;;;5.10;;
66741;SDS011;53654;54.152;19.432;2023-09-07T08:02:11;5.20;;;4.70;;
66741;SDS011;53654;54.152;19.432;2023-09-07T08:04:40;5.40;;;4.90;;
66741;SDS011;53654;54.152;19.432;2023-09-07T08:07:08;5.80;;;5.00;;
66741;SDS011;53654;54.152;19.432;2023-09-07T08:09:38;4.60;;;4.30;;
66741;SDS011;53654;54.152;19.432;2023-09-07T08:12:06;5.70;;;5.20;;
66741;SDS011;53654;54.152;19.432;2023-09-07T08:14:35;5.60;;;4.90;;
66741;SDS011;53654;54.152;19.432;2023-09-07T08:17:04;5.10;;;4.60;;
66741;SDS011;53654;54.152;19.432;2023-09-07T08:19:33;5.00;;;4.50;;
66741;SDS011;53654;54.152;19.432;2023-09-07T08:22:01;5.00;;;4.50;;
66741;SDS011;53654;54.152;19.432;2023-09-07T08:24:33;5.60;;;5.00;;
66741;SDS011;53654;54.152;19.432;2023-09-07T08:27:01;6.80;;;4.90;;
66741;SDS011;53654;54.152;19.432;2023-09-07T08:29:29;5.10;;;4.40;;
66741;SDS011;53654;54.152;19.432;2023-09-07T08:32:00;5.00;;;4.40;;
66741;SDS011;53654;54.152;19.432;2023-09-07T08:34:32;5.40;;;4.40;;
66741;SDS011;53654;54.152;19.432;2023-09-07T08:37:00;5.10;;;4.50;;
66741;SDS011;53654;54.152;19.432;2023-09-07T08:39:28;4.80;;;4.20;;
66741;SDS011;53654;54.152;19.432;2023-09-07T08:41:56;5.10;;;4.30;;
66741;SDS011;53654;54.152;19.432;2023-09-07T08:44:29;4.70;;;4.30;;
66741;SDS011;53654;54.152;19.432;2023-09-07T08:46:59;4.50;;;4.00;;
66741;SDS011;53654;54.152;19.432;2023-09-07T08:49:31;4.80;;;4.30;;
66741;SDS011;53654;54.152;19.432;2023-09-07T08:52:01;4.80;;;4.10;;
66741;SDS011;53654;54.152;19.432;2023-09-07T08:54:32;4.30;;;3.90;;
66741;SDS011;53654;54.152;19.432;2023-09-07T08:57:02;6.80;;;4.30;;
66741;SDS011;53654;54.152;19.432;2023-09-07T08:59:31;4.50;;;4.00;;
66741;SDS011;53654;54.152;19.432;2023-09-07T09:02:00;4.20;;;3.80;;
66741;SDS011;53654;54.152;19.432;2023-09-07T09:04:28;4.40;;;4.00;;
66741;SDS011;53654;54.152;19.432;2023-09-07T09:06:58;4.70;;;4.00;;
66741;SDS011;53654;54.152;19.432;2023-09-07T09:09:26;4.90;;;4.30;;
66741;SDS011;53654;54.152;19.432;2023-09-07T09:11:55;4.40;;;3.90;;
66741;SDS011;53654;54.152;19.432;2023-09-07T09:14:34;5.50;;;4.40;;
66741;SDS011;53654;54.152;19.432;2023-09-07T09:17:02;5.30;;;4.00;;
66741;SDS011;53654;54.152;19.432;2023-09-07T09:19:34;6.00;;;4.00;;
66741;SDS011;53654;54.152;19.432;2023-09-07T09:22:03;4.40;;;4.00;;
66741;SDS011;53654;54.152;19.432;2023-09-07T09:24:32;4.30;;;3.90;;
66741;SDS011;53654;54.152;19.432;2023-09-07T09:27:02;4.70;;;4.10;;
66741;SDS011;53654;54.152;19.432;2023-09-07T09:29:32;5.80;;;4.00;;
66741;SDS011;53654;54.152;19.432;2023-09-07T09:32:05;6.00;;;3.90;;
66741;SDS011;53654;54.152;19.432;2023-09-07T09:34:35;4.20;;;3.80;;
66741;SDS011;53654;54.152;19.432;2023-09-07T09:37:04;5.00;;;3.60;;
66741;SDS011;53654;54.152;19.432;2023-09-07T09:39:40;6.00;;;3.80;;
66741;SDS011;53654;54.152;19.432;2023-09-07T09:42:09;4.20;;;3.80;;
66741;SDS011;53654;54.152;19.432;2023-09-07T09:44:38;5.30;;;3.90;;
66741;SDS011;53654;54.152;19.432;2023-09-07T09:47:09;4.20;;;3.70;;
66741;SDS011;53654;54.152;19.432;2023-09-07T09:49:40;4.20;;;3.80;;
66741;SDS011;53654;54.152;19.432;2023-09-07T09:52:08;4.50;;;3.60;;
66741;SDS011;53654;54.152;19.432;2023-09-07T09:54:37;3.80;;;3.50;;
66741;SDS011;53654;54.152;19.432;2023-09-07T09:57:07;4.60;;;3.60;;
66741;SDS011;53654;54.152;19.432;2023-09-07T09:59:35;3.90;;;3.50;;
66741;SDS011;53654;54.152;19.432;2023-09-07T10:02:04;3.90;;;3.50;;
66741;SDS011;53654;54.152;19.432;2023-09-07T10:04:32;3.90;;;3.40;;
66741;SDS011;53654;54.152;19.432;2023-09-07T10:07:01;3.70;;;3.40;;
66741;SDS011;53654;54.152;19.432;2023-09-07T10:09:33;3.80;;;3.50;;
66741;SDS011;53654;54.152;19.432;2023-09-07T10:12:02;4.50;;;3.50;;
66741;SDS011;53654;54.152;19.432;2023-09-07T10:14:39;4.30;;;3.40;;
66741;SDS011;53654;54.152;19.432;2023-09-07T10:17:08;5.40;;;3.50;;
66741;SDS011;53654;54.152;19.432;2023-09-07T10:19:40;4.70;;;3.70;;
66741;SDS011;53654;54.152;19.432;2023-09-07T10:22:20;4.20;;;3.80;;
66741;SDS011;53654;54.152;19.432;2023-09-07T10:24:57;4.30;;;3.50;;
66741;SDS011;53654;54.152;19.432;2023-09-07T10:27:26;5.20;;;3.60;;
66741;SDS011;53654;54.152;19.432;2023-09-07T10:30:10;3.90;;;3.60;;
66741;SDS011;53654;54.152;19.432;2023-09-07T10:32:51;4.10;;;3.60;;
66741;SDS011;53654;54.152;19.432;2023-09-07T10:35:20;4.40;;;3.40;;
66741;SDS011;53654;54.152;19.432;2023-09-07T10:37:53;3.90;;;3.60;;
66741;SDS011;53654;54.152;19.432;2023-09-07T10:40:21;3.80;;;3.40;;
66741;SDS011;53654;54.152;19.432;2023-09-07T10:43:00;4.40;;;3.50;;
66741;SDS011;53654;54.152;19.432;2023-09-07T10:45:28;5.40;;;3.60;;
66741;SDS011;53654;54.152;19.432;2023-09-07T10:47:56;4.70;;;3.40;;
66741;SDS011;53654;54.152;19.432;2023-09-07T10:50:25;3.60;;;3.30;;
66741;SDS011;53654;54.152;19.432;2023-09-07T10:52:53;3.80;;;3.30;;
66741;SDS011;53654;54.152;19.432;2023-09-07T10:55:21;4.00;;;3.40;;
66741;SDS011;53654;54.152;19.432;2023-09-07T10:57:50;3.80;;;3.20;;
66741;SDS011;53654;54.152;19.432;2023-09-07T11:00:18;5.00;;;3.60;;
66741;SDS011;53654;54.152;19.432;2023-09-07T11:02:46;3.80;;;3.50;;
66741;SDS011;53654;54.152;19.432;2023-09-07T11:05:14;4.40;;;3.50;;
66741;SDS011;53654;54.152;19.432;2023-09-07T11:07:42;4.50;;;3.50;;
66741;SDS011;53654;54.152;19.432;2023-09-07T11:10:11;3.80;;;3.40;;
66741;SDS011;53654;54.152;19.432;2023-09-07T11:12:39;4.80;;;3.30;;
66741;SDS011;53654;54.152;19.432;2023-09-07T11:15:08;3.80;;;3.40;;
66741;SDS011;53654;54.152;19.432;2023-09-07T11:17:38;4.40;;;3.60;;
66741;SDS011;53654;54.152;19.432;2023-09-07T11:20:07;4.70;;;3.20;;
66741;SDS011;53654;54.152;19.432;2023-09-07T11:22:37;3.50;;;3.20;;
66741;SDS011;53654;54.152;19.432;2023-09-07T11:25:25;4.10;;;3.30;;
66741;SDS011;53654;54.152;19.432;2023-09-07T11:27:54;3.50;;;3.20;;
66741;SDS011;53654;54.152;19.432;2023-09-07T11:30:23;4.10;;;3.10;;
66741;SDS011;53654;54.152;19.432;2023-09-07T11:32:59;3.70;;;3.40;;
66741;SDS011;53654;54.152;19.432;2023-09-07T11:35:33;4.20;;;3.40;;
66741;SDS011;53654;54.152;19.432;2023-09-07T11:38:02;3.20;;;2.90;;
66741;SDS011;53654;54.152;19.432;2023-09-07T11:40:35;3.20;;;2.90;;
66741;SDS011;53654;54.152;19.432;2023-09-07T11:43:04;3.30;;;3.10;;
66741;SDS011;53654;54.152;19.432;2023-09-07T11:45:32;4.20;;;3.20;;
66741;SDS011;53654;54.152;19.432;2023-09-07T11:48:00;3.40;;;3.10;;
66741;SDS011;53654;54.152;19.432;2023-09-07T11:50:29;3.20;;;3.00;;
66741;SDS011;53654;54.152;19.432;2023-09-07T11:53:00;4.60;;;3.10;;
66741;SDS011;53654;54.152;19.432;2023-09-07T11:55:28;3.50;;;3.20;;
66741;SDS011;53654;54.152;19.432;2023-09-07T11:57:56;3.70;;;3.20;;
66741;SDS011;53654;54.152;19.432;2023-09-07T12:00:25;3.20;;;2.90;;
66741;SDS011;53654;54.152;19.432;2023-09-07T12:02:54;3.30;;;3.00;;
66741;SDS011;53654;54.152;19.432;2023-09-07T12:05:22;3.10;;;2.80;;
66741;SDS011;53654;54.152;19.432;2023-09-07T12:07:51;3.30;;;3.00;;
66741;SDS011;53654;54.152;19.432;2023-09-07T12:10:19;3.80;;;3.00;;
66741;SDS011;53654;54.152;19.432;2023-09-07T12:12:48;3.50;;;2.90;;
66741;SDS011;53654;54.152;19.432;2023-09-07T12:15:16;3.50;;;2.60;;
66741;SDS011;53654;54.152;19.432;2023-09-07T12:17:45;3.20;;;2.80;;
66741;SDS011;53654;54.152;19.432;2023-09-07T12:20:13;3.30;;;2.90;;
66741;SDS011;53654;54.152;19.432;2023-09-07T12:22:42;3.40;;;2.90;;
66741;SDS011;53654;54.152;19.432;2023-09-07T12:25:10;4.70;;;2.80;;
66741;SDS011;53654;54.152;19.432;2023-09-07T12:27:42;3.00;;;2.80;;
66741;SDS011;53654;54.152;19.432;2023-09-07T12:30:22;3.20;;;2.70;;
66741;SDS011;53654;54.152;19.432;2023-09-07T12:32:51;3.10;;;2.80;;
66741;SDS011;53654;54.152;19.432;2023-09-07T12:35:20;2.80;;;2.50;;
66741;SDS011;53654;54.152;19.432;2023-09-07T12:37:48;3.30;;;2.60;;
66741;SDS011;53654;54.152;19.432;2023-09-07T12:40:17;3.60;;;2.90;;
66741;SDS011;53654;54.152;19.432;2023-09-07T12:42:45;3.50;;;2.70;;
66741;SDS011;53654;54.152;19.432;2023-09-07T12:45:14;3.90;;;2.80;;
66741;SDS011;53654;54.152;19.432;2023-09-07T12:47:43;3.30;;;2.50;;
66741;SDS011;53654;54.152;19.432;2023-09-07T12:50:11;2.80;;;2.60;;
66741;SDS011;53654;54.152;19.432;2023-09-07T12:52:40;2.70;;;2.50;;
66741;SDS011;53654;54.152;19.432;2023-09-07T12:55:08;3.00;;;2.80;;
66741;SDS011;53654;54.152;19.432;2023-09-07T12:57:37;3.40;;;2.70;;
66741;SDS011;53654;54.152;19.432;2023-09-07T13:00:05;3.40;;;2.60;;
66741;SDS011;53654;54.152;19.432;2023-09-07T13:02:34;3.30;;;2.40;;
66741;SDS011;53654;54.152;19.432;2023-09-07T13:05:02;2.90;;;2.70;;
66741;SDS011;53654;54.152;19.432;2023-09-07T13:07:34;3.10;;;2.60;;
66741;SDS011;53654;54.152;19.432;2023-09-07T13:10:03;2.90;;;2.60;;
66741;SDS011;53654;54.152;19.432;2023-09-07T13:12:32;2.80;;;2.60;;
66741;SDS011;53654;54.152;19.432;2023-09-07T13:15:01;2.80;;;2.60;;
66741;SDS011;53654;54.152;19.432;2023-09-07T13:17:29;3.20;;;2.70;;
66741;SDS011;53654;54.152;19.432;2023-09-07T13:19:57;4.00;;;2.70;;
66741;SDS011;53654;54.152;19.432;2023-09-07T13:22:25;3.90;;;2.80;;
66741;SDS011;53654;54.152;19.432;2023-09-07T13:24:53;2.80;;;2.50;;
66741;SDS011;53654;54.152;19.432;2023-09-07T13:27:22;3.30;;;2.80;;
66741;SDS011;53654;54.152;19.432;2023-09-07T13:29:50;2.80;;;2.60;;
66741;SDS011;53654;54.152;19.432;2023-09-07T13:32:18;2.80;;;2.60;;
66741;SDS011;53654;54.152;19.432;2023-09-07T13:34:46;3.50;;;2.90;;
66741;SDS011;53654;54.152;19.432;2023-09-07T13:37:14;3.00;;;2.40;;
66741;SDS011;53654;54.152;19.432;2023-09-07T13:39:42;3.00;;;2.40;;
66741;SDS011;53654;54.152;19.432;2023-09-07T13:42:10;2.40;;;2.20;;
66741;SDS011;53654;54.152;19.432;2023-09-07T13:44:38;2.40;;;2.20;;
66741;SDS011;53654;54.152;19.432;2023-09-07T13:47:07;2.50;;;2.30;;
66741;SDS011;53654;54.152;19.432;2023-09-07T13:49:38;3.20;;;2.30;;
66741;SDS011;53654;54.152;19.432;2023-09-07T13:52:06;3.50;;;2.60;;
66741;SDS011;53654;54.152;19.432;2023-09-07T13:54:34;4.00;;;2.70;;
66741;SDS011;53654;54.152;19.432;2023-09-07T13:57:02;3.00;;;2.50;;
66741;SDS011;53654;54.152;19.432;2023-09-07T13:59:30;3.40;;;2.50;;
66741;SDS011;53654;54.152;19.432;2023-09-07T14:02:02;2.70;;;2.50;;
66741;SDS011;53654;54.152;19.432;2023-09-07T14:04:30;3.50;;;2.40;;
66741;SDS011;53654;54.152;19.432;2023-09-07T14:06:58;3.90;;;3.50;;
66741;SDS011;53654;54.152;19.432;2023-09-07T14:09:27;2.70;;;2.50;;
66741;SDS011;53654;54.152;19.432;2023-09-07T14:11:55;2.80;;;2.60;;
66741;SDS011;53654;54.152;19.432;2023-09-07T14:14:23;3.00;;;2.70;;
66741;SDS011;53654;54.152;19.432;2023-09-07T14:16:51;2.70;;;2.40;;
66741;SDS011;53654;54.152;19.432;2023-09-07T14:19:24;3.10;;;2.60;;
66741;SDS011;53654;54.152;19.432;2023-09-07T14:21:55;2.80;;;2.50;;
66741;SDS011;53654;54.152;19.432;2023-09-07T14:24:23;2.60;;;2.40;;
66741;SDS011;53654;54.152;19.432;2023-09-07T14:26:52;3.20;;;2.50;;
66741;SDS011;53654;54.152;19.432;2023-09-07T14:29:20;3.40;;;2.50;;
66741;SDS011;53654;54.152;19.432;2023-09-07T14:31:48;2.80;;;2.50;;
66741;SDS011;53654;54.152;19.432;2023-09-07T14:34:16;2.40;;;2.20;;
66741;SDS011;53654;54.152;19.432;2023-09-07T14:36:44;2.60;;;2.40;;